createdAt,value
2022-08-05T00:00:17.030Z,4.30
2022-08-05T00:02:51.309Z,5.10
2022-08-05T00:06:01.439Z,3.75
2022-08-05T00:08:19.799Z,3.55
2022-08-05T00:11:00.458Z,4.82
2022-08-05T00:13:39.633Z,4.18
2022-08-05T00:16:12.382Z,5.20
2022-08-05T00:18:42.599Z,6.95
2022-08-05T00:21:14.461Z,5.93
2022-08-05T00:24:05.021Z,5.25
2022-08-05T00:26:35.341Z,5.43
2022-08-05T00:29:05.644Z,5.53
2022-08-05T00:31:53.571Z,4.10
2022-08-05T00:34:56.865Z,4.18
2022-08-05T00:37:16.302Z,9.32
2022-08-05T00:39:58.850Z,6.85
2022-08-05T00:42:39.909Z,2.92
2022-08-05T00:45:11.781Z,4.00
2022-08-05T00:47:57.300Z,8.10
2022-08-05T00:50:31.072Z,2.85
2022-08-05T00:53:00.037Z,5.68
2022-08-05T00:55:42.249Z,3.78
2022-08-05T00:58:11.899Z,3.22
2022-08-05T01:00:42.200Z,4.53
2022-08-05T01:03:22.916Z,4.05
2022-08-05T01:05:54.773Z,4.45
2022-08-05T01:08:40.392Z,4.97
2022-08-05T01:11:22.228Z,6.00
2022-08-05T01:14:08.899Z,6.30
2022-08-05T01:16:46.949Z,8.60
2022-08-05T01:19:36.715Z,3.17
2022-08-05T01:22:39.501Z,5.13
2022-08-05T01:25:39.797Z,4.82
2022-08-05T01:28:18.850Z,5.53
2022-08-05T01:30:53.951Z,3.72
2022-08-05T01:33:29.509Z,4.78
2022-08-05T01:36:12.920Z,5.28
2022-08-05T01:38:45.873Z,8.48
2022-08-05T01:41:19.135Z,3.33
2022-08-05T01:43:52.944Z,12.70
2022-08-05T01:46:43.031Z,9.77
2022-08-05T01:49:24.241Z,5.78
2022-08-05T01:51:56.238Z,6.82
2022-08-05T01:54:30.357Z,9.32
2022-08-05T01:58:14.909Z,12.70
2022-08-05T01:59:50.242Z,6.43
2022-08-05T02:02:26.096Z,6.97
2022-08-05T02:04:59.073Z,9.45
2022-08-05T02:07:27.189Z,10.40
2022-08-05T02:09:59.211Z,4.90
2022-08-05T02:12:38.283Z,4.65
2022-08-05T02:15:13.625Z,5.72
2022-08-05T02:18:28.806Z,13.57
2022-08-05T02:20:45.083Z,8.23
2022-08-05T02:23:18.467Z,12.57
2022-08-05T02:25:49.260Z,7.78
2022-08-05T02:28:28.298Z,6.40
2022-08-05T02:31:01.850Z,12.10
2022-08-05T02:33:36.070Z,5.53
2022-08-05T02:36:09.323Z,6.93
2022-08-05T02:38:38.456Z,4.10
2022-08-05T02:41:17.308Z,17.15
2022-08-05T02:44:02.586Z,12.52
2022-08-05T02:49:07.306Z,14.13
2022-08-05T02:52:04.088Z,5.60
2022-08-05T02:54:35.702Z,7.15
2022-08-05T02:57:09.765Z,10.77
2022-08-05T02:59:47.909Z,5.65
2022-08-05T03:02:21.908Z,11.52
2022-08-05T03:04:53.264Z,6.72
2022-08-05T03:07:40.504Z,9.82
2022-08-05T03:12:39.729Z,8.27
2022-08-05T03:15:12.473Z,7.65
2022-08-05T03:17:44.765Z,8.23
2022-08-05T03:20:13.524Z,9.60
2022-08-05T03:22:44.350Z,9.80
2022-08-05T03:25:33.533Z,14.30
2022-08-05T03:28:09.810Z,12.98
2022-08-05T03:30:38.542Z,10.60
2022-08-05T03:33:11.004Z,10.00
2022-08-05T03:35:41.196Z,5.43
2022-08-05T03:38:12.072Z,3.42
2022-08-05T03:40:41.428Z,9.90
2022-08-05T03:43:58.266Z,6.75
2022-08-05T03:46:01.817Z,10.50
2022-08-05T03:48:35.607Z,5.90
2022-08-05T03:52:38.508Z,6.28
2022-08-05T03:55:53.869Z,10.10
2022-08-05T03:56:52.267Z,8.32
2022-08-05T03:59:25.116Z,5.03
2022-08-05T04:01:58.957Z,11.00
2022-08-05T04:04:30.286Z,8.02
2022-08-05T04:07:00.113Z,17.63
2022-08-05T04:09:29.002Z,10.27
2022-08-05T04:11:57.778Z,9.15
2022-08-05T04:14:30.280Z,6.68
2022-08-05T04:17:00.871Z,10.88
2022-08-05T04:19:32.341Z,11.68
2022-08-05T04:22:10.216Z,10.02
2022-08-05T04:24:43.853Z,5.03
2022-08-05T04:27:13.407Z,11.18
2022-08-05T04:29:41.622Z,8.30
2022-08-05T04:32:10.647Z,11.88
2022-08-05T04:34:43.091Z,8.55
2022-08-05T04:37:11.324Z,7.00
2022-08-05T04:39:40.142Z,10.88
2022-08-05T04:42:09.195Z,10.68
2022-08-05T04:44:37.125Z,11.93
2022-08-05T04:47:09.658Z,12.02
2022-08-05T04:50:02.816Z,9.80
2022-08-05T04:52:28.864Z,8.88
2022-08-05T04:54:57.913Z,11.35
2022-08-05T04:57:28.970Z,11.80
2022-08-05T04:59:58.320Z,10.73
2022-08-05T05:02:36.496Z,8.52
2022-08-05T05:05:16.626Z,7.55
2022-08-05T05:07:56.514Z,10.48
2022-08-05T05:10:29.630Z,16.95
2022-08-05T05:12:57.947Z,19.40
2022-08-05T05:15:56.157Z,10.05
2022-08-05T05:20:46.036Z,12.77
2022-08-05T05:23:19.971Z,9.50
2022-08-05T05:25:48.075Z,13.38
2022-08-05T05:28:15.934Z,6.63
2022-08-05T05:30:43.879Z,8.85
2022-08-05T05:33:17.980Z,11.05
2022-08-05T05:35:52.780Z,9.48
2022-08-05T05:38:22.560Z,14.63
2022-08-05T05:40:55.838Z,12.23
2022-08-05T05:43:57.597Z,9.70
2022-08-05T05:46:17.323Z,10.38
2022-08-05T05:48:48.277Z,15.63
2022-08-05T05:51:22.294Z,11.88
2022-08-05T05:53:57.902Z,13.32
2022-08-05T05:56:32.708Z,9.63
2022-08-05T05:59:05.790Z,6.70
2022-08-05T06:01:37.337Z,6.70
2022-08-05T06:04:08.078Z,12.60
2022-08-05T06:06:37.639Z,10.98
2022-08-05T06:09:16.651Z,10.27
2022-08-05T06:11:59.419Z,15.07
2022-08-05T06:14:28.193Z,9.65
2022-08-05T06:16:57.156Z,11.82
2022-08-05T06:19:34.457Z,10.90
2022-08-05T06:22:06.490Z,8.90
2022-08-05T06:24:35.302Z,8.98
2022-08-05T06:27:03.869Z,14.18
2022-08-05T06:29:48.880Z,12.68
2022-08-05T06:32:25.254Z,12.80
2022-08-05T06:34:58.172Z,6.60
2022-08-05T06:37:57.665Z,6.20
2022-08-05T06:40:18.225Z,8.02
2022-08-05T06:42:52.299Z,7.13
2022-08-05T06:45:55.483Z,11.68
2022-08-05T06:48:44.359Z,7.10
2022-08-05T06:50:58.397Z,17.42
2022-08-05T06:53:29.599Z,12.27
2022-08-05T06:55:58.180Z,11.07
2022-08-05T06:58:34.974Z,10.32
2022-08-05T07:01:06.601Z,8.60
2022-08-05T07:03:35.749Z,3.85
2022-08-05T07:06:10.372Z,6.97
2022-08-05T07:08:47.628Z,6.57
2022-08-05T07:11:22.000Z,9.77
2022-08-05T07:14:08.280Z,5.18
2022-08-05T07:17:58.330Z,5.60
2022-08-05T07:22:35.307Z,4.10
2022-08-05T07:25:24.011Z,6.38
2022-08-05T07:27:58.151Z,5.35
2022-08-05T07:30:32.500Z,6.18
2022-08-05T07:33:05.203Z,3.83
2022-08-05T07:36:04.849Z,4.85
2022-08-05T07:38:32.037Z,3.30
2022-08-05T07:42:09.286Z,2.10
2022-08-05T07:43:55.165Z,3.13
2022-08-05T07:46:25.994Z,1.95
2022-08-05T07:49:01.472Z,3.78
2022-08-05T07:51:37.206Z,4.10
2022-08-05T07:54:10.494Z,5.93
2022-08-05T07:57:01.155Z,2.85
2022-08-05T07:59:38.109Z,1.70
2022-08-05T08:02:15.789Z,2.28
2022-08-05T08:04:47.304Z,6.00
2022-08-05T08:07:15.599Z,7.78
2022-08-05T08:09:43.917Z,7.07
2022-08-05T08:12:33.476Z,10.63
2022-08-05T08:15:03.433Z,8.50
2022-08-05T08:17:32.129Z,5.38
2022-08-05T08:20:22.635Z,10.98
2022-08-05T08:22:52.848Z,10.60
2022-08-05T08:25:26.867Z,4.55
2022-08-05T08:28:17.975Z,13.80
2022-08-05T08:30:47.817Z,4.88
2022-08-05T08:33:17.737Z,3.63
2022-08-05T08:35:52.308Z,3.40
2022-08-05T08:38:35.142Z,19.15
2022-08-05T08:41:08.620Z,3.80
2022-08-05T08:45:24.841Z,9.57
2022-08-05T08:46:30.402Z,2.08
2022-08-05T08:50:07.724Z,2.85
2022-08-05T08:52:03.359Z,3.75
2022-08-05T08:54:36.505Z,3.83
2022-08-05T08:57:11.230Z,3.08
2022-08-05T08:59:47.253Z,2.90
2022-08-05T09:02:19.636Z,2.60
2022-08-05T09:05:16.443Z,3.67
2022-08-05T09:07:39.437Z,2.03
2022-08-05T09:10:27.886Z,3.85
2022-08-05T09:13:04.692Z,8.70
2022-08-05T09:15:37.069Z,2.10
2022-08-05T09:18:08.798Z,2.65
2022-08-05T09:20:38.073Z,2.65
2022-08-05T09:23:19.550Z,1.85
2022-08-05T09:26:01.831Z,2.60
2022-08-05T09:28:33.761Z,3.60
2022-08-05T09:31:44.208Z,1.45
2022-08-05T09:33:55.445Z,1.77
2022-08-05T09:36:27.954Z,4.13
2022-08-05T09:39:02.723Z,1.88
2022-08-05T09:41:33.162Z,1.45
2022-08-05T09:44:07.013Z,4.68
2022-08-05T09:46:36.308Z,2.60
2022-08-05T09:49:19.017Z,2.13
2022-08-05T09:51:49.964Z,2.05
2022-08-05T09:54:30.283Z,6.80
2022-08-05T09:57:01.670Z,1.35
2022-08-05T09:59:35.231Z,3.38
2022-08-05T10:02:07.074Z,1.30
2022-08-05T10:04:40.926Z,3.80
2022-08-05T10:07:20.575Z,5.20
2022-08-05T10:10:14.418Z,2.47
2022-08-05T10:12:49.813Z,2.50
2022-08-05T10:15:27.018Z,6.80
2022-08-05T10:18:14.175Z,3.30
2022-08-05T10:20:48.305Z,3.60
2022-08-05T10:23:34.181Z,4.40
2022-08-05T10:26:14.062Z,1.85
2022-08-05T10:28:44.958Z,1.65
2022-08-05T10:32:51.963Z,5.60
2022-08-05T10:34:03.943Z,4.60
2022-08-05T10:36:36.403Z,1.35
2022-08-05T10:39:10.441Z,4.30
2022-08-05T10:41:57.879Z,2.70
2022-08-05T10:44:30.388Z,2.55
2022-08-05T10:46:58.740Z,1.70
2022-08-05T10:49:33.343Z,1.20
2022-08-05T10:52:40.093Z,1.83
2022-08-05T10:55:18.712Z,5.07
2022-08-05T10:57:47.480Z,1.70
2022-08-05T11:00:22.855Z,1.40
2022-08-05T11:03:23.193Z,3.78
2022-08-05T11:06:08.468Z,4.53
2022-08-05T11:09:13.148Z,2.22
2022-08-05T11:11:53.441Z,1.75
2022-08-05T11:14:57.894Z,4.40
2022-08-05T11:17:58.767Z,1.00
2022-08-05T11:20:41.719Z,1.35
2022-08-05T11:24:04.297Z,1.58
2022-08-05T11:26:32.140Z,4.68
2022-08-05T11:29:12.537Z,2.13
2022-08-05T11:31:54.477Z,1.77
2022-08-05T11:34:39.403Z,1.75
2022-08-05T11:38:26.475Z,2.08
2022-08-05T11:40:03.238Z,1.60
2022-08-05T11:42:38.046Z,1.90
2022-08-05T11:45:23.247Z,1.67
2022-08-05T11:47:58.843Z,1.65
2022-08-05T11:50:27.299Z,3.35
2022-08-05T11:52:58.271Z,2.17
2022-08-05T11:55:31.802Z,2.33
2022-08-05T11:58:10.861Z,7.03
2022-08-05T12:00:41.658Z,2.92
2022-08-05T12:03:29.218Z,2.05
2022-08-05T12:06:02.047Z,2.38
2022-08-05T12:08:31.525Z,3.20
2022-08-05T12:11:05.936Z,3.03
2022-08-05T12:13:48.639Z,2.70
2022-08-05T12:16:19.993Z,3.53
2022-08-05T12:18:54.491Z,1.73
2022-08-05T12:21:26.923Z,3.53
2022-08-05T12:24:05.224Z,1.30
2022-08-05T12:26:37.910Z,3.70
2022-08-05T12:29:09.802Z,5.43
2022-08-05T12:31:53.821Z,2.72
2022-08-05T12:34:25.770Z,1.50
2022-08-05T12:36:55.760Z,3.40
2022-08-05T12:39:34.328Z,2.00
2022-08-05T12:42:14.321Z,3.42
2022-08-05T12:44:43.259Z,2.20
2022-08-05T12:47:13.025Z,3.20
2022-08-05T12:50:03.869Z,5.55
2022-08-05T12:52:41.991Z,1.38
2022-08-05T12:55:23.648Z,3.15
2022-08-05T12:58:52.626Z,2.78
2022-08-05T13:02:03.018Z,2.88
2022-08-05T13:03:41.764Z,5.05
2022-08-05T13:06:15.876Z,4.35
2022-08-05T13:08:50.680Z,1.88
2022-08-05T13:11:25.615Z,4.60
2022-08-05T13:14:24.641Z,7.32
2022-08-05T13:17:08.450Z,3.88
2022-08-05T13:19:51.785Z,1.55
2022-08-05T13:22:29.317Z,3.85
2022-08-05T13:25:00.420Z,2.30
2022-08-05T13:27:37.756Z,1.60
2022-08-05T13:30:35.867Z,6.38
2022-08-05T13:33:00.913Z,4.07
2022-08-05T13:35:42.805Z,2.03
2022-08-05T13:38:30.161Z,3.63
2022-08-05T13:40:59.873Z,3.30
2022-08-05T13:43:45.511Z,2.05
2022-08-05T13:46:30.858Z,3.40
2022-08-05T13:49:10.281Z,2.80
2022-08-05T13:51:41.434Z,4.70
2022-08-05T13:54:12.570Z,1.80
2022-08-05T13:56:45.217Z,4.55
2022-08-05T13:59:21.408Z,2.95
2022-08-05T14:01:57.511Z,2.90
2022-08-05T14:04:49.922Z,2.47
2022-08-05T14:07:26.399Z,2.38
2022-08-05T14:10:10.462Z,4.75
2022-08-05T14:12:39.750Z,4.68
2022-08-05T14:16:04.580Z,4.80
2022-08-05T14:18:01.320Z,5.65
2022-08-05T14:20:30.644Z,4.97
2022-08-05T14:22:58.671Z,4.32
2022-08-05T14:25:28.004Z,3.88
2022-08-05T14:27:56.516Z,1.95
2022-08-05T14:30:28.131Z,8.93
2022-08-05T14:32:56.856Z,6.50
2022-08-05T14:35:36.950Z,4.55
2022-08-05T14:38:27.904Z,3.10
2022-08-05T14:41:01.368Z,3.15
2022-08-05T14:43:58.810Z,7.82
2022-08-05T14:46:17.187Z,4.75
2022-08-05T14:48:45.049Z,6.53
2022-08-05T14:51:19.528Z,8.38
2022-08-05T14:54:28.785Z,5.35
2022-08-05T14:56:38.123Z,13.15
2022-08-05T14:59:12.775Z,67.10
2022-08-05T15:01:48.282Z,27.60
2022-08-05T15:04:17.405Z,15.25
2022-08-05T15:06:50.584Z,12.00
2022-08-05T15:09:51.002Z,9.05
2022-08-05T15:12:08.990Z,6.68
2022-08-05T15:14:48.179Z,11.63
2022-08-05T15:17:47.025Z,10.15
2022-08-05T15:20:11.966Z,10.23
2022-08-05T15:22:52.289Z,6.10
2022-08-05T15:25:23.579Z,6.75
2022-08-05T15:28:14.234Z,5.13
2022-08-05T15:30:43.655Z,7.25
2022-08-05T15:33:56.574Z,6.85
2022-08-05T15:36:03.662Z,8.52
2022-08-05T15:38:40.854Z,4.03
2022-08-05T15:41:23.235Z,4.97
2022-08-05T15:43:54.710Z,5.13
2022-08-05T15:46:24.820Z,6.13
2022-08-05T15:48:58.961Z,5.55
2022-08-05T15:52:10.083Z,8.80
2022-08-05T15:54:19.024Z,9.40
2022-08-05T15:56:47.085Z,5.15
2022-08-05T15:59:21.934Z,5.90
2022-08-05T16:01:52.648Z,5.38
2022-08-05T16:04:25.216Z,10.80
2022-08-05T16:06:54.086Z,6.40
2022-08-05T16:09:25.719Z,6.50
2022-08-05T16:11:54.192Z,5.88
2022-08-05T16:14:22.542Z,6.70
2022-08-05T16:16:51.019Z,10.52
2022-08-05T16:20:03.113Z,8.13
2022-08-05T16:22:07.586Z,8.23
2022-08-05T16:24:51.804Z,6.95
2022-08-05T16:27:47.110Z,4.65
2022-08-05T16:30:23.099Z,7.90
2022-08-05T16:32:54.685Z,3.97
2022-08-05T16:35:27.848Z,8.15
2022-08-05T16:38:16.076Z,7.97
2022-08-05T16:40:52.128Z,7.03
2022-08-05T16:43:30.218Z,6.55
2022-08-05T16:46:04.213Z,8.48
2022-08-05T16:48:40.908Z,5.22
2022-08-05T16:51:10.829Z,8.75
2022-08-05T16:54:05.366Z,4.10
2022-08-05T16:56:30.804Z,4.63
2022-08-05T16:59:00.779Z,6.60
2022-08-05T17:01:52.945Z,7.47
2022-08-05T17:04:18.672Z,6.95
2022-08-05T17:06:53.139Z,5.35
2022-08-05T17:09:21.711Z,6.00
2022-08-05T17:11:59.841Z,5.32
2022-08-05T17:14:37.326Z,6.53
2022-08-05T17:17:06.796Z,4.45
2022-08-05T17:19:45.672Z,5.90
2022-08-05T17:22:24.723Z,5.88
2022-08-05T17:24:57.573Z,4.22
2022-08-05T17:27:34.145Z,6.40
2022-08-05T17:30:03.196Z,5.63
2022-08-05T17:32:32.207Z,9.85
2022-08-05T17:35:02.868Z,7.20
2022-08-05T17:37:40.066Z,4.90
2022-08-05T17:40:12.989Z,4.30
2022-08-05T17:42:50.533Z,5.35
2022-08-05T17:45:21.793Z,6.68
2022-08-05T17:47:54.470Z,8.15
2022-08-05T17:50:28.204Z,3.63
2022-08-05T17:52:59.744Z,8.05
2022-08-05T17:55:37.950Z,3.13
2022-08-05T17:58:12.682Z,7.00
2022-08-05T18:00:45.203Z,6.93
2022-08-05T18:03:55.924Z,6.07
2022-08-05T18:06:11.313Z,5.70
2022-08-05T18:08:44.928Z,6.82
2022-08-05T18:11:24.253Z,7.28
2022-08-05T18:14:04.268Z,8.13
2022-08-05T18:16:33.717Z,9.23
2022-08-05T18:19:01.787Z,8.40
2022-08-05T18:22:07.581Z,11.05
2022-08-05T18:24:17.721Z,10.65
2022-08-05T18:26:45.578Z,7.63
2022-08-05T18:29:17.247Z,14.80
2022-08-05T18:31:45.233Z,12.30
2022-08-05T18:34:13.231Z,14.68
2022-08-05T18:36:43.664Z,11.45
2022-08-05T18:39:42.093Z,14.25
2022-08-05T18:42:05.006Z,11.43
2022-08-05T18:44:49.355Z,12.13
2022-08-05T18:47:26.713Z,9.65
2022-08-05T18:50:13.020Z,11.45
2022-08-05T18:55:19.989Z,11.90
2022-08-05T18:57:53.388Z,12.95
2022-08-05T19:00:27.255Z,14.45
2022-08-05T19:02:56.864Z,20.40
2022-08-05T19:06:12.227Z,15.63
2022-08-05T19:10:43.483Z,18.15
2022-08-05T19:13:15.968Z,13.02
2022-08-05T19:15:57.648Z,19.35
2022-08-05T19:18:28.636Z,14.65
2022-08-05T19:20:57.201Z,14.00
2022-08-05T19:24:07.973Z,23.45
2022-08-05T19:26:13.832Z,21.83
2022-08-05T19:28:43.425Z,15.45
2022-08-05T19:31:17.876Z,14.18
2022-08-05T19:33:48.493Z,13.00
2022-08-05T19:36:25.072Z,10.93
2022-08-05T19:38:54.544Z,11.00
2022-08-05T19:41:58.059Z,11.38
2022-08-05T19:44:13.523Z,9.73
2022-08-05T19:46:43.687Z,14.10
2022-08-05T19:49:16.374Z,12.38
2022-08-05T19:52:04.790Z,11.65
2022-08-05T19:54:32.771Z,9.43
2022-08-05T19:57:06.439Z,11.77
2022-08-05T19:59:54.892Z,9.98
2022-08-05T20:02:30.381Z,11.10
2022-08-05T20:04:59.903Z,9.00
2022-08-05T20:07:46.618Z,10.73
2022-08-05T20:10:17.086Z,12.23
2022-08-05T20:12:48.427Z,9.70
2022-08-05T20:15:48.851Z,9.05
2022-08-05T20:18:10.042Z,11.32
2022-08-05T20:20:56.966Z,12.38
2022-08-05T20:23:39.749Z,12.48
2022-08-05T20:26:16.568Z,12.70
2022-08-05T20:28:48.449Z,12.93
2022-08-05T20:31:17.058Z,13.15
2022-08-05T20:33:46.477Z,15.15
2022-08-05T20:36:16.180Z,12.13
2022-08-05T20:38:54.232Z,12.88
2022-08-05T20:41:43.762Z,15.30
2022-08-05T20:44:29.958Z,12.20
2022-08-05T20:47:00.238Z,10.85
2022-08-05T20:49:29.474Z,9.73
2022-08-05T20:52:01.242Z,10.60
2022-08-05T20:54:55.028Z,10.00
2022-08-05T20:57:24.687Z,12.88
2022-08-05T21:00:19.638Z,9.70
2022-08-05T21:03:00.037Z,10.55
2022-08-05T21:05:47.971Z,11.13
2022-08-05T21:08:18.475Z,9.45
2022-08-05T21:10:48.995Z,9.15
2022-08-05T21:13:25.924Z,12.48
2022-08-05T21:15:55.456Z,6.73
2022-08-05T21:18:23.507Z,9.13
2022-08-05T21:20:52.998Z,10.40
2022-08-05T21:23:20.878Z,11.07
2022-08-05T21:25:50.505Z,8.00
2022-08-05T21:28:18.792Z,10.30
2022-08-05T21:30:51.923Z,8.95
2022-08-05T21:33:22.484Z,7.57
2022-08-05T21:35:58.199Z,7.93
2022-08-05T21:38:27.006Z,10.05
2022-08-05T21:40:55.003Z,8.73
2022-08-05T21:43:24.667Z,7.63
2022-08-05T21:45:57.605Z,11.48
2022-08-05T21:48:28.654Z,10.05
2022-08-05T21:50:57.969Z,7.35
2022-08-05T21:53:28.037Z,7.10
2022-08-05T21:56:05.688Z,7.68
2022-08-05T21:58:42.369Z,5.55
2022-08-05T22:01:23.944Z,14.00
2022-08-05T22:03:53.682Z,9.80
2022-08-05T22:06:35.569Z,5.53
2022-08-05T22:09:15.145Z,6.82
2022-08-05T22:11:47.015Z,7.00
2022-08-05T22:14:33.980Z,6.93
2022-08-05T22:17:07.050Z,5.47
2022-08-05T22:20:02.801Z,6.07
2022-08-05T22:22:27.073Z,7.20
2022-08-05T22:25:18.872Z,6.68
2022-08-05T22:28:09.335Z,7.93
2022-08-05T22:30:56.214Z,3.95
2022-08-05T22:33:58.372Z,5.43
2022-08-05T22:36:15.308Z,5.13
2022-08-05T22:38:48.037Z,3.42
2022-08-05T22:42:05.033Z,5.38
2022-08-05T22:46:33.263Z,3.08
2022-08-05T22:49:01.125Z,5.65
2022-08-05T22:51:29.963Z,2.30
2022-08-05T22:54:18.383Z,5.67
2022-08-05T22:56:51.417Z,2.90
2022-08-05T22:59:46.248Z,3.72
2022-08-05T23:02:09.441Z,2.33
2022-08-05T23:04:37.669Z,2.92
2022-08-05T23:07:06.945Z,6.57
2022-08-05T23:09:57.926Z,8.73
2022-08-05T23:12:24.706Z,4.43
2022-08-05T23:14:53.146Z,4.97
2022-08-05T23:17:34.492Z,3.85
2022-08-05T23:20:16.771Z,2.22
2022-08-05T23:22:47.451Z,3.17
2022-08-05T23:25:51.955Z,5.40
2022-08-05T23:28:07.689Z,3.13
2022-08-05T23:30:40.594Z,4.50
2022-08-05T23:33:16.055Z,3.88
2022-08-05T23:35:50.463Z,4.97
2022-08-05T23:38:18.461Z,5.70
2022-08-05T23:40:49.753Z,6.13
2022-08-05T23:43:25.712Z,5.20
2022-08-05T23:46:20.161Z,8.80
2022-08-05T23:49:00.035Z,6.32
2022-08-05T23:51:53.523Z,6.53
2022-08-05T23:54:25.220Z,3.22
2022-08-05T23:57:03.330Z,5.30
